createdAt,value
2022-09-24T00:00:32.755Z,56.64
2022-09-24T00:02:34.942Z,57.14
2022-09-24T00:04:37.278Z,56.71
2022-09-24T00:06:43.213Z,56.81
2022-09-24T00:08:49.610Z,56.89
2022-09-24T00:10:51.934Z,57.18
2022-09-24T00:12:54.032Z,57.05
2022-09-24T00:14:56.075Z,56.98
2022-09-24T00:16:59.328Z,57.43
2022-09-24T00:19:03.031Z,57.68
2022-09-24T00:21:14.828Z,57.87
2022-09-24T00:23:17.045Z,57.67
2022-09-24T00:25:37.747Z,57.54
2022-09-24T00:27:39.780Z,57.83
2022-09-24T00:29:42.315Z,58.21
2022-09-24T00:31:44.554Z,58.08
2022-09-24T00:33:46.711Z,58.13
2022-09-24T00:35:48.793Z,58.03
2022-09-24T00:38:02.329Z,58.24
2022-09-24T00:40:06.272Z,57.47
2022-09-24T00:42:10.389Z,57.66
2022-09-24T00:44:41.139Z,58.24
2022-09-24T00:47:02.240Z,57.63
2022-09-24T00:49:17.112Z,58.24
2022-09-24T00:51:25.659Z,58.24
2022-09-24T00:53:33.289Z,58.23
2022-09-24T00:55:37.160Z,57.81
2022-09-24T00:57:40.555Z,58.02
2022-09-24T00:59:44.156Z,58.21
2022-09-24T01:01:47.575Z,58.27
2022-09-24T01:03:51.692Z,57.97
2022-09-24T01:05:55.546Z,58.24
2022-09-24T01:07:58.385Z,58.23
2022-09-24T01:10:01.831Z,58.23
2022-09-24T01:12:48.683Z,58.75
2022-09-24T01:15:24.814Z,58.91
2022-09-24T01:17:48.585Z,58.78
2022-09-24T01:19:59.775Z,58.75
2022-09-24T01:22:08.343Z,58.69
2022-09-24T01:24:36.157Z,58.08
2022-09-24T01:27:06.084Z,58.04
2022-09-24T01:29:26.991Z,58.36
2022-09-24T01:31:42.010Z,57.96
2022-09-24T01:33:49.110Z,57.94
2022-09-24T01:35:55.552Z,57.80
2022-09-24T01:38:05.016Z,58.31
2022-09-24T01:40:10.944Z,58.03
2022-09-24T01:42:14.691Z,58.46
2022-09-24T01:44:18.614Z,58.25
2022-09-24T01:46:22.961Z,58.62
2022-09-24T01:48:30.603Z,58.95
2022-09-24T01:50:47.332Z,58.90
2022-09-24T01:52:56.181Z,58.69
2022-09-24T01:55:03.957Z,58.34
2022-09-24T01:57:13.655Z,58.83
2022-09-24T01:59:42.917Z,58.82
2022-09-24T02:02:16.405Z,58.99
2022-09-24T02:04:21.682Z,58.75
2022-09-24T02:06:31.827Z,58.81
2022-09-24T02:08:42.663Z,59.04
2022-09-24T02:10:55.827Z,59.63
2022-09-24T02:13:04.162Z,59.98
2022-09-24T02:15:13.340Z,59.74
2022-09-24T02:17:16.859Z,59.00
2022-09-24T02:19:24.387Z,59.18
2022-09-24T02:21:27.774Z,59.15
2022-09-24T02:23:32.545Z,59.19
2022-09-24T02:26:03.563Z,59.22
2022-09-24T02:28:05.584Z,58.83
2022-09-24T02:30:11.106Z,58.78
2022-09-24T02:32:18.376Z,59.17
2022-09-24T02:34:42.575Z,59.19
2022-09-24T02:36:44.860Z,58.89
2022-09-24T02:38:47.013Z,58.72
2022-09-24T02:40:49.987Z,59.02
2022-09-24T02:42:52.429Z,58.81
2022-09-24T02:44:57.575Z,59.43
2022-09-24T02:47:00.064Z,59.24
2022-09-24T02:49:02.551Z,59.51
2022-09-24T02:51:05.861Z,59.43
2022-09-24T02:53:08.105Z,59.28
2022-09-24T02:55:10.284Z,59.31
2022-09-24T02:57:12.695Z,58.96
2022-09-24T02:59:14.937Z,58.96
2022-09-24T03:01:17.060Z,58.80
2022-09-24T03:03:19.419Z,59.29
2022-09-24T03:05:22.304Z,59.10
2022-09-24T03:07:24.245Z,59.11
2022-09-24T03:09:26.289Z,59.68
2022-09-24T03:11:29.302Z,59.65
2022-09-24T03:13:31.671Z,59.55
2022-09-24T03:15:33.955Z,59.45
2022-09-24T03:17:36.410Z,58.97
2022-09-24T03:19:42.260Z,58.94
2022-09-24T03:21:49.329Z,58.96
2022-09-24T03:23:51.805Z,59.38
2022-09-24T03:25:58.836Z,59.65
2022-09-24T03:28:01.141Z,59.22
2022-09-24T03:30:22.613Z,59.08
2022-09-24T03:32:24.708Z,59.04
2022-09-24T03:34:26.858Z,58.79
2022-09-24T03:36:28.969Z,59.09
2022-09-24T03:38:31.116Z,59.19
2022-09-24T03:40:33.397Z,58.97
2022-09-24T03:42:35.776Z,59.24
2022-09-24T03:44:37.774Z,59.36
2022-09-24T03:46:39.878Z,59.22
2022-09-24T03:48:42.028Z,59.12
2022-09-24T03:50:44.444Z,59.43
2022-09-24T03:52:46.488Z,59.04
2022-09-24T03:54:48.881Z,59.01
2022-09-24T03:56:50.901Z,59.45
2022-09-24T03:58:53.561Z,59.47
2022-09-24T04:00:59.522Z,59.56
2022-09-24T04:03:01.481Z,59.75
2022-09-24T04:05:03.942Z,59.41
2022-09-24T04:07:06.199Z,59.65
2022-09-24T04:09:08.248Z,60.12
2022-09-24T04:11:10.256Z,59.61
2022-09-24T04:13:13.029Z,60.04
2022-09-24T04:15:18.420Z,60.35
2022-09-24T04:17:20.321Z,60.11
2022-09-24T04:19:22.655Z,60.41
2022-09-24T04:21:24.733Z,60.46
2022-09-24T04:23:29.424Z,60.79
2022-09-24T04:25:32.700Z,60.92
2022-09-24T04:27:36.802Z,61.42
2022-09-24T04:29:38.848Z,60.94
2022-09-24T04:31:41.103Z,60.85
2022-09-24T04:33:43.698Z,60.97
2022-09-24T04:35:46.017Z,60.95
2022-09-24T04:37:48.377Z,61.04
2022-09-24T04:39:50.423Z,61.40
2022-09-24T04:41:53.319Z,60.84
2022-09-24T04:43:57.656Z,61.19
2022-09-24T04:46:00.530Z,60.65
2022-09-24T04:48:02.995Z,60.90
2022-09-24T04:50:05.919Z,61.37
2022-09-24T04:52:09.020Z,61.90
2022-09-24T04:54:11.424Z,61.50
2022-09-24T04:56:14.618Z,61.17
2022-09-24T04:58:17.148Z,60.92
2022-09-24T05:00:21.488Z,61.32
2022-09-24T05:02:24.477Z,60.72
2022-09-24T05:04:26.693Z,60.65
2022-09-24T05:06:29.008Z,61.05
2022-09-24T05:08:31.189Z,61.20
2022-09-24T05:10:33.628Z,61.05
2022-09-24T05:12:37.949Z,61.10
2022-09-24T05:14:40.193Z,60.86
2022-09-24T05:16:42.428Z,60.78
2022-09-24T05:18:47.444Z,61.09
2022-09-24T05:20:49.839Z,61.03
2022-09-24T05:22:52.050Z,60.95
2022-09-24T05:24:54.587Z,60.69
2022-09-24T05:27:11.653Z,60.72
2022-09-24T05:29:14.291Z,60.49
2022-09-24T05:31:17.570Z,59.91
2022-09-24T05:33:19.531Z,59.92
2022-09-24T05:35:23.718Z,59.82
2022-09-24T05:37:25.813Z,60.13
2022-09-24T05:39:33.468Z,59.93
2022-09-24T05:41:36.050Z,59.53
2022-09-24T05:43:38.842Z,59.16
2022-09-24T05:45:43.771Z,59.57
2022-09-24T05:47:46.669Z,59.46
2022-09-24T05:49:49.341Z,59.93
2022-09-24T05:51:51.879Z,59.82
2022-09-24T05:53:54.558Z,59.34
2022-09-24T05:55:59.472Z,59.28
2022-09-24T05:58:10.795Z,59.47
2022-09-24T06:00:13.767Z,59.62
2022-09-24T06:02:16.459Z,59.48
2022-09-24T06:04:21.497Z,59.66
2022-09-24T06:06:25.199Z,59.19
2022-09-24T06:08:28.840Z,59.33
2022-09-24T06:10:31.054Z,58.60
2022-09-24T06:12:36.935Z,58.50
2022-09-24T06:14:39.448Z,58.51
2022-09-24T06:16:41.984Z,58.60
2022-09-24T06:18:45.560Z,58.27
2022-09-24T06:20:48.067Z,58.67
2022-09-24T06:22:50.785Z,58.66
2022-09-24T06:24:53.263Z,58.84
2022-09-24T06:26:55.451Z,58.04
2022-09-24T06:30:01.606Z,58.07
2022-09-24T06:32:04.381Z,58.15
2022-09-24T06:34:06.677Z,58.01
2022-09-24T06:36:09.160Z,58.04
2022-09-24T06:38:13.938Z,57.44
2022-09-24T06:40:16.839Z,57.19
2022-09-24T06:42:20.550Z,57.16
2022-09-24T06:44:23.002Z,56.88
2022-09-24T06:46:29.338Z,56.56
2022-09-24T06:48:34.353Z,56.38
2022-09-24T06:50:41.610Z,56.36
2022-09-24T06:52:44.092Z,55.67
2022-09-24T06:54:47.708Z,54.87
2022-09-24T06:56:51.578Z,54.56
2022-09-24T06:58:54.471Z,52.75
2022-09-24T07:00:59.442Z,53.80
2022-09-24T07:03:04.578Z,54.45
2022-09-24T07:05:09.987Z,53.44
2022-09-24T07:07:30.385Z,53.61
2022-09-24T07:09:33.050Z,54.80
2022-09-24T07:11:36.800Z,54.29
2022-09-24T07:13:38.832Z,53.97
2022-09-24T07:15:42.306Z,54.08
2022-09-24T07:17:45.035Z,54.10
2022-09-24T07:19:47.362Z,53.39
2022-09-24T07:21:49.480Z,53.39
2022-09-24T07:23:56.379Z,52.83
2022-09-24T07:26:03.118Z,52.71
2022-09-24T07:28:11.058Z,52.42
2022-09-24T07:30:16.113Z,52.76
2022-09-24T07:32:18.506Z,52.76
2022-09-24T07:34:20.986Z,52.70
2022-09-24T07:36:25.299Z,51.85
2022-09-24T07:38:27.618Z,52.17
2022-09-24T07:40:31.398Z,52.73
2022-09-24T07:42:33.835Z,52.40
2022-09-24T07:44:36.720Z,53.21
2022-09-24T07:46:39.101Z,52.81
2022-09-24T07:48:41.408Z,52.33
2022-09-24T07:50:43.627Z,52.13
2022-09-24T07:52:50.788Z,52.02
2022-09-24T07:54:54.614Z,52.16
2022-09-24T07:56:57.288Z,51.15
2022-09-24T07:58:59.559Z,51.86
2022-09-24T08:01:02.280Z,51.56
2022-09-24T08:03:05.828Z,50.97
2022-09-24T08:05:08.495Z,51.05
2022-09-24T08:07:12.023Z,50.85
2022-09-24T08:09:17.179Z,51.54
2022-09-24T08:11:20.140Z,51.15
2022-09-24T08:13:26.838Z,51.69
2022-09-24T08:15:33.429Z,50.67
2022-09-24T08:17:35.987Z,48.79
2022-09-24T08:19:40.102Z,48.80
2022-09-24T08:21:42.397Z,48.82
2022-09-24T08:23:45.123Z,48.59
2022-09-24T08:25:48.147Z,48.36
2022-09-24T08:27:50.380Z,47.72
2022-09-24T08:29:52.975Z,47.39
2022-09-24T08:31:55.800Z,47.92
2022-09-24T08:33:58.109Z,47.49
2022-09-24T08:36:01.745Z,47.64
2022-09-24T08:38:04.269Z,47.52
2022-09-24T08:40:07.329Z,48.07
2022-09-24T08:42:34.274Z,46.80
2022-09-24T08:45:04.178Z,47.89
2022-09-24T08:47:25.448Z,47.57
2022-09-24T08:49:46.541Z,45.99
2022-09-24T08:52:29.857Z,45.63
2022-09-24T08:54:35.788Z,47.22
2022-09-24T08:56:44.080Z,47.93
2022-09-24T08:59:21.618Z,46.96
2022-09-24T09:01:23.750Z,47.42
2022-09-24T09:03:40.986Z,46.51
2022-09-24T09:06:19.770Z,45.77
2022-09-24T09:09:06.442Z,46.60
2022-09-24T09:11:13.818Z,45.72
2022-09-24T09:13:25.721Z,45.85
2022-09-24T09:15:32.618Z,45.98
2022-09-24T09:17:55.325Z,46.19
2022-09-24T09:20:01.953Z,46.39
2022-09-24T09:22:15.280Z,46.63
2022-09-24T09:24:26.745Z,47.56
2022-09-24T09:26:32.022Z,47.56
2022-09-24T09:28:34.393Z,47.28
2022-09-24T09:30:49.054Z,47.15
2022-09-24T09:33:20.306Z,45.76
2022-09-24T09:36:03.869Z,44.55
2022-09-24T09:38:43.204Z,44.96
2022-09-24T09:40:59.428Z,45.71
2022-09-24T09:43:09.598Z,45.42
2022-09-24T09:45:27.968Z,45.66
2022-09-24T09:47:54.238Z,44.44
2022-09-24T09:50:04.243Z,46.05
2022-09-24T09:52:15.869Z,44.79
2022-09-24T09:54:17.888Z,45.79
2022-09-24T09:56:25.411Z,45.29
2022-09-24T09:58:31.307Z,45.10
2022-09-24T10:00:36.010Z,45.68
2022-09-24T10:02:43.816Z,45.04
2022-09-24T10:04:46.760Z,44.50
2022-09-24T10:06:48.962Z,44.98
2022-09-24T10:08:51.482Z,45.61
2022-09-24T10:11:01.361Z,45.25
2022-09-24T10:13:09.339Z,43.55
2022-09-24T10:15:24.517Z,43.44
2022-09-24T10:17:38.659Z,43.68
2022-09-24T10:20:15.928Z,43.57
2022-09-24T10:22:26.210Z,43.93
2022-09-24T10:24:30.088Z,45.24
2022-09-24T10:26:43.864Z,45.30
2022-09-24T10:29:08.808Z,45.00
2022-09-24T10:31:21.606Z,44.25
2022-09-24T10:33:36.054Z,42.39
2022-09-24T10:35:38.853Z,42.54
2022-09-24T10:38:00.278Z,42.25
2022-09-24T10:40:12.904Z,42.13
2022-09-24T10:42:26.212Z,43.03
2022-09-24T10:44:37.113Z,43.16
2022-09-24T10:46:48.445Z,42.51
2022-09-24T10:48:55.197Z,43.88
2022-09-24T10:51:17.718Z,43.36
2022-09-24T10:53:47.415Z,43.20
2022-09-24T10:55:55.799Z,42.33
2022-09-24T10:58:14.318Z,42.11
2022-09-24T11:00:30.155Z,42.92
2022-09-24T11:03:00.111Z,41.03
2022-09-24T11:05:12.329Z,41.69
2022-09-24T11:07:36.364Z,42.06
2022-09-24T11:10:13.334Z,42.42
2022-09-24T11:12:52.935Z,43.14
2022-09-24T11:15:22.237Z,42.02
2022-09-24T11:17:33.806Z,42.25
2022-09-24T11:20:00.615Z,42.12
2022-09-24T11:22:15.974Z,43.05
2022-09-24T11:24:46.065Z,43.77
2022-09-24T11:27:10.959Z,41.32
2022-09-24T11:29:37.035Z,39.73
2022-09-24T11:31:42.817Z,41.01
2022-09-24T11:34:22.033Z,39.65
2022-09-24T11:36:43.031Z,38.93
2022-09-24T11:39:12.871Z,39.08
2022-09-24T11:41:33.589Z,40.57
2022-09-24T11:43:35.864Z,41.46
2022-09-24T11:45:49.207Z,40.43
2022-09-24T11:48:00.116Z,40.42
2022-09-24T11:50:24.428Z,39.16
2022-09-24T11:52:48.212Z,39.47
2022-09-24T11:54:58.685Z,40.73
2022-09-24T11:57:13.353Z,40.27
2022-09-24T11:59:35.259Z,40.37
2022-09-24T12:01:41.238Z,40.96
2022-09-24T12:03:57.363Z,40.29
2022-09-24T12:06:09.765Z,39.32
2022-09-24T12:08:38.445Z,39.79
2022-09-24T12:10:48.942Z,37.55
2022-09-24T12:12:57.600Z,38.73
2022-09-24T12:15:08.744Z,39.52
2022-09-24T12:17:18.884Z,38.68
2022-09-24T12:19:23.571Z,39.30
2022-09-24T12:21:35.202Z,38.32
2022-09-24T12:23:45.160Z,38.91
2022-09-24T12:25:53.516Z,39.77
2022-09-24T12:27:56.841Z,39.20
2022-09-24T12:30:32.220Z,38.54
2022-09-24T12:32:56.378Z,38.98
2022-09-24T12:35:07.761Z,38.69
2022-09-24T12:37:14.465Z,38.79
2022-09-24T12:39:19.222Z,39.83
2022-09-24T12:41:27.511Z,38.83
2022-09-24T12:43:38.202Z,38.25
2022-09-24T12:45:40.555Z,38.94
2022-09-24T12:48:01.604Z,37.29
2022-09-24T12:50:06.718Z,38.01
2022-09-24T12:52:25.378Z,37.45
2022-09-24T12:54:35.379Z,38.35
2022-09-24T12:56:37.700Z,38.75
2022-09-24T12:58:42.057Z,38.60
2022-09-24T13:00:47.284Z,38.94
2022-09-24T13:02:49.721Z,39.15
2022-09-24T13:05:28.228Z,38.29
2022-09-24T13:07:39.854Z,38.49
2022-09-24T13:09:42.898Z,39.15
2022-09-24T13:11:45.584Z,39.28
2022-09-24T13:13:59.756Z,39.65
2022-09-24T13:16:08.020Z,39.48
2022-09-24T13:18:10.345Z,39.56
2022-09-24T13:20:28.881Z,39.44
2022-09-24T13:22:37.424Z,39.89
2022-09-24T13:24:50.952Z,39.18
2022-09-24T13:26:53.216Z,39.26
2022-09-24T13:29:04.227Z,38.92
2022-09-24T13:31:21.374Z,39.18
2022-09-24T13:33:45.448Z,39.39
2022-09-24T13:36:11.014Z,38.92
2022-09-24T13:38:27.478Z,39.39
2022-09-24T13:40:35.023Z,39.79
2022-09-24T13:43:00.849Z,39.63
2022-09-24T13:45:09.636Z,39.99
2022-09-24T13:47:37.637Z,39.45
2022-09-24T13:49:47.687Z,38.65
2022-09-24T13:52:31.128Z,38.79
2022-09-24T13:54:39.896Z,39.16
2022-09-24T13:56:44.099Z,39.26
2022-09-24T13:58:51.997Z,39.06
2022-09-24T14:00:55.224Z,39.09
2022-09-24T14:03:03.278Z,38.84
2022-09-24T14:05:17.611Z,39.41
2022-09-24T14:07:21.686Z,38.99
2022-09-24T14:09:23.637Z,38.95
2022-09-24T14:11:26.423Z,39.14
2022-09-24T14:13:28.479Z,39.60
2022-09-24T14:15:30.553Z,38.34
2022-09-24T14:17:32.752Z,38.60
2022-09-24T14:19:36.228Z,38.50
2022-09-24T14:21:58.832Z,38.61
2022-09-24T14:24:09.903Z,38.66
2022-09-24T14:26:36.647Z,38.26
2022-09-24T14:28:39.193Z,38.82
2022-09-24T14:31:00.231Z,38.71
2022-09-24T14:33:12.150Z,39.06
2022-09-24T14:35:29.858Z,39.26
2022-09-24T14:37:36.467Z,39.14
2022-09-24T14:39:43.677Z,39.39
2022-09-24T14:41:45.760Z,39.64
2022-09-24T14:43:53.662Z,39.65
2022-09-24T14:46:07.064Z,39.99
2022-09-24T14:48:30.409Z,39.92
2022-09-24T14:50:41.022Z,39.77
2022-09-24T14:52:56.818Z,40.23
2022-09-24T14:55:20.703Z,40.33
2022-09-24T14:57:26.027Z,40.30
2022-09-24T14:59:30.840Z,40.57
2022-09-24T15:01:33.978Z,40.57
2022-09-24T15:03:53.604Z,40.62
2022-09-24T15:06:12.643Z,40.45
2022-09-24T15:08:24.055Z,40.50
2022-09-24T15:10:26.093Z,40.84
2022-09-24T15:12:36.863Z,40.59
2022-09-24T15:14:39.208Z,40.83
2022-09-24T15:16:42.236Z,40.63
2022-09-24T15:18:44.606Z,40.75
2022-09-24T15:20:46.654Z,40.91
2022-09-24T15:22:49.097Z,40.93
2022-09-24T15:24:54.363Z,40.87
2022-09-24T15:27:01.077Z,40.92
2022-09-24T15:29:04.207Z,41.09
2022-09-24T15:31:06.361Z,41.13
2022-09-24T15:33:14.686Z,41.04
2022-09-24T15:35:17.255Z,41.46
2022-09-24T15:37:21.900Z,41.28
2022-09-24T15:39:25.950Z,41.62
2022-09-24T15:41:28.363Z,41.41
2022-09-24T15:43:30.356Z,41.66
2022-09-24T15:45:32.460Z,41.61
2022-09-24T15:47:34.520Z,41.52
2022-09-24T15:49:36.554Z,41.70
2022-09-24T15:51:40.364Z,41.41
2022-09-24T15:53:42.547Z,41.81
2022-09-24T15:55:48.662Z,41.87
2022-09-24T15:57:50.800Z,41.74
2022-09-24T15:59:53.694Z,41.67
2022-09-24T16:02:00.156Z,41.57
2022-09-24T16:04:02.545Z,41.39
2022-09-24T16:06:04.731Z,41.61
2022-09-24T16:08:06.797Z,42.01
2022-09-24T16:10:10.648Z,41.58
2022-09-24T16:12:16.479Z,41.90
2022-09-24T16:14:19.042Z,42.31
2022-09-24T16:16:22.775Z,42.21
2022-09-24T16:18:26.220Z,42.55
2022-09-24T16:20:30.903Z,42.44
2022-09-24T16:22:33.083Z,42.61
2022-09-24T16:24:35.366Z,42.28
2022-09-24T16:26:38.769Z,42.66
2022-09-24T16:28:40.731Z,42.59
2022-09-24T16:30:43.265Z,42.73
2022-09-24T16:32:48.111Z,42.97
2022-09-24T16:34:50.232Z,42.58
2022-09-24T16:36:55.501Z,43.21
2022-09-24T16:38:58.641Z,43.05
2022-09-24T16:41:01.052Z,42.82
2022-09-24T16:43:04.030Z,43.82
2022-09-24T16:45:07.190Z,43.13
2022-09-24T16:47:09.639Z,43.69
2022-09-24T16:49:12.684Z,43.55
2022-09-24T16:51:14.952Z,43.83
2022-09-24T16:53:17.150Z,43.58
2022-09-24T16:55:19.402Z,43.68
2022-09-24T16:57:21.470Z,44.07
2022-09-24T16:59:23.509Z,43.77
2022-09-24T17:01:25.815Z,43.56
2022-09-24T17:03:28.026Z,43.55
2022-09-24T17:05:30.120Z,44.41
2022-09-24T17:07:32.799Z,43.77
2022-09-24T17:09:53.533Z,44.30
2022-09-24T17:11:57.187Z,44.08
2022-09-24T17:14:00.668Z,44.53
2022-09-24T17:16:02.960Z,44.42
2022-09-24T17:18:05.221Z,44.09
2022-09-24T17:20:08.007Z,44.20
2022-09-24T17:22:10.393Z,43.49
2022-09-24T17:24:13.816Z,44.89
2022-09-24T17:26:23.029Z,44.65
2022-09-24T17:28:25.511Z,45.46
2022-09-24T17:30:27.519Z,45.71
2022-09-24T17:32:29.738Z,45.79
2022-09-24T17:34:31.923Z,45.31
2022-09-24T17:36:35.335Z,45.38
2022-09-24T17:38:38.226Z,45.53
2022-09-24T17:40:40.421Z,45.74
2022-09-24T17:42:45.919Z,46.06
2022-09-24T17:44:47.912Z,45.93
2022-09-24T17:46:50.197Z,45.70
2022-09-24T17:48:55.155Z,45.84
2022-09-24T17:50:59.507Z,46.33
2022-09-24T17:53:04.023Z,46.21
2022-09-24T17:55:08.554Z,47.10
2022-09-24T17:57:10.709Z,46.92
2022-09-24T17:59:16.952Z,46.92
2022-09-24T18:01:22.223Z,47.05
2022-09-24T18:03:24.631Z,47.24
2022-09-24T18:05:26.835Z,47.19
2022-09-24T18:07:30.032Z,47.26
2022-09-24T18:09:32.146Z,47.72
2022-09-24T18:11:40.077Z,47.44
2022-09-24T18:13:42.330Z,47.50
2022-09-24T18:15:44.355Z,47.55
2022-09-24T18:17:46.318Z,47.63
2022-09-24T18:19:48.339Z,47.68
2022-09-24T18:21:50.487Z,47.35
2022-09-24T18:23:56.724Z,47.65
2022-09-24T18:26:19.711Z,47.24
2022-09-24T18:28:22.788Z,47.68
2022-09-24T18:30:25.031Z,47.87
2022-09-24T18:32:33.198Z,48.10
2022-09-24T18:34:35.555Z,48.29
2022-09-24T18:36:39.802Z,48.76
2022-09-24T18:38:44.415Z,49.13
2022-09-24T18:40:47.553Z,49.63
2022-09-24T18:42:50.562Z,49.71
2022-09-24T18:44:55.722Z,49.96
2022-09-24T18:46:57.840Z,49.81
2022-09-24T18:49:01.124Z,50.23
2022-09-24T18:51:05.317Z,50.63
2022-09-24T18:53:07.320Z,50.46
2022-09-24T18:55:09.993Z,50.42
2022-09-24T18:57:14.231Z,50.20
2022-09-24T18:59:19.643Z,49.81
2022-09-24T19:01:21.974Z,49.96
2022-09-24T19:03:28.230Z,49.55
2022-09-24T19:05:30.366Z,49.84
2022-09-24T19:07:32.778Z,49.64
2022-09-24T19:09:37.644Z,49.95
2022-09-24T19:11:42.125Z,50.43
2022-09-24T19:13:49.121Z,50.23
2022-09-24T19:15:51.507Z,49.78
2022-09-24T19:17:54.212Z,50.72
2022-09-24T19:19:56.664Z,50.37
2022-09-24T19:21:59.748Z,49.99
2022-09-24T19:24:01.932Z,50.47
2022-09-24T19:26:05.079Z,50.40
2022-09-24T19:28:10.635Z,50.65
2022-09-24T19:30:12.816Z,50.64
2022-09-24T19:32:15.163Z,50.48
2022-09-24T19:34:17.356Z,50.97
2022-09-24T19:36:20.159Z,50.76
2022-09-24T19:38:24.085Z,50.54
2022-09-24T19:40:26.126Z,51.03
2022-09-24T19:42:28.058Z,50.84
2022-09-24T19:44:30.907Z,51.03
2022-09-24T19:46:33.560Z,51.05
2022-09-24T19:48:38.670Z,51.68
2022-09-24T19:50:40.859Z,52.58
2022-09-24T19:52:44.254Z,52.43
2022-09-24T19:54:46.482Z,52.23
2022-09-24T19:56:51.588Z,52.26
2022-09-24T19:58:56.024Z,52.73
2022-09-24T20:01:02.811Z,53.04
2022-09-24T20:03:05.408Z,52.23
2022-09-24T20:05:08.067Z,52.47
2022-09-24T20:07:10.614Z,52.51
2022-09-24T20:09:13.163Z,52.46
2022-09-24T20:11:19.484Z,52.68
2022-09-24T20:13:22.570Z,52.42
2022-09-24T20:15:24.600Z,52.75
2022-09-24T20:17:26.670Z,52.55
2022-09-24T20:19:31.728Z,52.54
2022-09-24T20:21:35.248Z,52.81
2022-09-24T20:23:37.613Z,52.39
2022-09-24T20:25:58.105Z,52.60
2022-09-24T20:28:00.664Z,53.37
2022-09-24T20:30:02.868Z,53.04
2022-09-24T20:32:05.276Z,53.23
2022-09-24T20:34:07.229Z,53.41
2022-09-24T20:36:17.974Z,53.14
2022-09-24T20:38:22.215Z,53.78
2022-09-24T20:40:24.023Z,53.15
2022-09-24T20:42:25.804Z,53.35
2022-09-24T20:44:28.112Z,54.12
2022-09-24T20:46:30.435Z,53.97
2022-09-24T20:48:32.273Z,53.58
2022-09-24T20:50:34.915Z,54.33
2022-09-24T20:52:36.864Z,54.02
2022-09-24T20:54:38.580Z,54.19
2022-09-24T20:56:40.783Z,54.22
2022-09-24T20:58:42.819Z,53.88
2022-09-24T21:00:54.462Z,54.29
2022-09-24T21:02:56.351Z,54.64
2022-09-24T21:04:58.401Z,54.23
2022-09-24T21:07:01.742Z,54.22
2022-09-24T21:09:04.015Z,54.86
2022-09-24T21:11:11.339Z,54.44
2022-09-24T21:13:13.211Z,54.47
2022-09-24T21:15:15.478Z,54.10
2022-09-24T21:17:18.652Z,54.45
2022-09-24T21:19:21.062Z,54.32
2022-09-24T21:21:29.027Z,54.53
2022-09-24T21:23:32.889Z,54.71
2022-09-24T21:25:53.509Z,54.27
2022-09-24T21:27:56.773Z,54.54
2022-09-24T21:29:58.426Z,54.41
2022-09-24T21:32:00.388Z,54.11
2022-09-24T21:34:02.443Z,54.79
2022-09-24T21:36:07.345Z,54.49
2022-09-24T21:38:09.409Z,55.00
2022-09-24T21:40:11.566Z,54.63
2022-09-24T21:42:14.209Z,54.22
2022-09-24T21:44:17.739Z,54.40
2022-09-24T21:46:19.795Z,54.29
2022-09-24T21:48:23.572Z,54.28
2022-09-24T21:50:25.290Z,54.01
2022-09-24T21:52:31.211Z,53.96
2022-09-24T21:54:36.578Z,54.00
2022-09-24T21:56:38.341Z,54.01
2022-09-24T21:58:40.033Z,54.07
2022-09-24T22:00:42.976Z,54.16
2022-09-24T22:02:45.235Z,53.96
2022-09-24T22:04:47.451Z,53.61
2022-09-24T22:06:51.321Z,53.77
2022-09-24T22:08:54.316Z,53.69
2022-09-24T22:11:05.328Z,53.73
2022-09-24T22:13:08.683Z,53.77
2022-09-24T22:15:11.093Z,53.39
2022-09-24T22:17:13.951Z,53.45
2022-09-24T22:19:15.807Z,53.63
2022-09-24T22:21:17.600Z,53.12
2022-09-24T22:23:20.963Z,53.34
2022-09-24T22:25:22.943Z,53.50
2022-09-24T22:27:24.618Z,53.05
2022-09-24T22:29:26.339Z,53.20
2022-09-24T22:31:28.170Z,53.33
2022-09-24T22:33:49.640Z,53.60
2022-09-24T22:35:55.735Z,53.66
2022-09-24T22:37:57.537Z,53.45
2022-09-24T22:39:59.396Z,53.43
2022-09-24T22:42:01.684Z,53.56
2022-09-24T22:44:03.610Z,53.71
2022-09-24T22:46:11.692Z,53.92
2022-09-24T22:48:13.611Z,53.99
2022-09-24T22:50:15.416Z,53.69
2022-09-24T22:52:17.167Z,53.95
2022-09-24T22:54:18.923Z,53.93
2022-09-24T22:56:30.392Z,53.81
2022-09-24T22:58:33.841Z,53.88
2022-09-24T23:00:36.398Z,53.68
2022-09-24T23:02:38.135Z,53.90
2022-09-24T23:04:40.658Z,53.72
2022-09-24T23:06:43.746Z,53.82
2022-09-24T23:08:45.578Z,53.79
2022-09-24T23:10:47.514Z,53.87
2022-09-24T23:12:49.438Z,53.72
2022-09-24T23:14:52.614Z,53.61
2022-09-24T23:16:58.783Z,53.76
2022-09-24T23:19:03.620Z,53.96
2022-09-24T23:21:07.490Z,53.50
2022-09-24T23:23:09.297Z,53.47
2022-09-24T23:25:11.001Z,53.50
2022-09-24T23:27:16.933Z,53.19
2022-09-24T23:29:18.770Z,53.34
2022-09-24T23:31:25.353Z,53.51
2022-09-24T23:33:30.013Z,53.39
2022-09-24T23:35:32.343Z,53.38
2022-09-24T23:37:34.216Z,53.41
2022-09-24T23:39:35.976Z,52.99
2022-09-24T23:41:37.820Z,52.77
2022-09-24T23:43:39.758Z,53.48
2022-09-24T23:45:42.024Z,53.39
2022-09-24T23:47:43.806Z,53.12
2022-09-24T23:49:45.541Z,53.15
2022-09-24T23:51:47.247Z,53.81
2022-09-24T23:53:49.050Z,53.37
2022-09-24T23:55:52.162Z,53.58
2022-09-24T23:57:53.977Z,53.62
2022-09-24T23:59:55.875Z,53.73
